createdAt,value
2022-10-17T00:00:07.326Z,96182.00
2022-10-17T00:00:17.257Z,96181.00
2022-10-17T00:00:27.113Z,96179.00
2022-10-17T00:00:37.254Z,96179.00
2022-10-17T00:00:47.248Z,96183.00
2022-10-17T00:00:57.319Z,96180.00
2022-10-17T00:01:07.375Z,96180.00
2022-10-17T00:01:17.255Z,96183.00
2022-10-17T00:01:27.312Z,96183.00
2022-10-17T00:01:37.276Z,96184.00
2022-10-17T00:01:47.263Z,96181.00
2022-10-17T00:01:57.206Z,96184.00
2022-10-17T00:02:07.381Z,96180.00
2022-10-17T00:02:17.345Z,96178.00
2022-10-17T00:02:27.140Z,96180.00
2022-10-17T00:02:37.334Z,96181.00
2022-10-17T00:02:47.215Z,96181.00
2022-10-17T00:02:57.438Z,96178.00
2022-10-17T00:03:07.176Z,96183.00
2022-10-17T00:03:17.382Z,96181.00
2022-10-17T00:03:27.251Z,96184.00
2022-10-17T00:03:37.348Z,96183.00
2022-10-17T00:03:47.226Z,96182.00
2022-10-17T00:03:57.403Z,96184.00
2022-10-17T00:04:07.133Z,96182.00
2022-10-17T00:04:17.170Z,96182.00
2022-10-17T00:04:27.245Z,96181.00
2022-10-17T00:04:41.084Z,96186.00
2022-10-17T00:04:47.283Z,96184.00
2022-10-17T00:04:57.377Z,96188.00
2022-10-17T00:05:07.220Z,96184.00
2022-10-17T00:05:17.289Z,96182.00
2022-10-17T00:05:27.379Z,96181.00
2022-10-17T00:05:37.372Z,96184.00
2022-10-17T00:05:47.197Z,96183.00
2022-10-17T00:05:58.328Z,96183.00
2022-10-17T00:06:07.364Z,96190.00
2022-10-17T00:06:17.284Z,96188.00
2022-10-17T00:06:27.332Z,96189.00
2022-10-17T00:06:37.245Z,96188.00
2022-10-17T00:06:47.307Z,96188.00
2022-10-17T00:06:57.142Z,96190.00
2022-10-17T00:07:07.132Z,96187.00
2022-10-17T00:07:17.244Z,96188.00
2022-10-17T00:07:27.404Z,96189.00
2022-10-17T00:07:37.502Z,96189.00
2022-10-17T00:07:47.303Z,96188.00
2022-10-17T00:07:57.293Z,96187.00
2022-10-17T00:08:07.203Z,96188.00
2022-10-17T00:08:17.287Z,96187.00
2022-10-17T00:08:27.177Z,96186.00
2022-10-17T00:08:37.329Z,96188.00
2022-10-17T00:08:47.368Z,96190.00
2022-10-17T00:08:57.238Z,96188.00
2022-10-17T00:09:07.226Z,96189.00
2022-10-17T00:09:17.190Z,96186.00
2022-10-17T00:09:27.290Z,96188.00
2022-10-17T00:09:37.169Z,96189.00
2022-10-17T00:09:47.350Z,96189.00
2022-10-17T00:09:57.228Z,96185.00
2022-10-17T00:10:07.501Z,96185.00
2022-10-17T00:10:17.219Z,96187.00
2022-10-17T00:10:27.231Z,96187.00
2022-10-17T00:10:37.216Z,96188.00
2022-10-17T00:10:47.359Z,96187.00
2022-10-17T00:10:57.165Z,96185.00
2022-10-17T00:11:07.314Z,96187.00
2022-10-17T00:11:17.382Z,96183.00
2022-10-17T00:11:27.253Z,96188.00
2022-10-17T00:11:37.171Z,96187.00
2022-10-17T00:11:47.112Z,96188.00
2022-10-17T00:11:57.293Z,96187.00
2022-10-17T00:12:07.113Z,96190.00
2022-10-17T00:12:17.263Z,96184.00
2022-10-17T00:12:27.101Z,96184.00
2022-10-17T00:12:37.105Z,96183.00
2022-10-17T00:12:47.428Z,96184.00
2022-10-17T00:12:57.302Z,96190.00
2022-10-17T00:13:07.215Z,96184.00
2022-10-17T00:13:17.108Z,96183.00
2022-10-17T00:13:27.396Z,96184.00
2022-10-17T00:13:37.121Z,96186.00
2022-10-17T00:13:47.171Z,96187.00
2022-10-17T00:13:57.366Z,96184.00
2022-10-17T00:14:07.388Z,96186.00
2022-10-17T00:14:17.327Z,96188.00
2022-10-17T00:14:27.129Z,96187.00
2022-10-17T00:14:37.308Z,96185.00
2022-10-17T00:14:50.006Z,96184.00
2022-10-17T00:14:57.281Z,96190.00
2022-10-17T00:15:07.369Z,96188.00
2022-10-17T00:15:17.482Z,96187.00
2022-10-17T00:15:27.307Z,96187.00
2022-10-17T00:15:37.250Z,96184.00
2022-10-17T00:15:47.220Z,96186.00
2022-10-17T00:15:57.258Z,96185.00
2022-10-17T00:16:07.226Z,96184.00
2022-10-17T00:16:17.250Z,96187.00
2022-10-17T00:16:27.389Z,96187.00
2022-10-17T00:16:37.713Z,96189.00
2022-10-17T00:16:47.343Z,96186.00
2022-10-17T00:16:57.137Z,96188.00
2022-10-17T00:17:07.186Z,96187.00
2022-10-17T00:17:17.184Z,96187.00
2022-10-17T00:17:27.723Z,96186.00
2022-10-17T00:17:37.139Z,96191.00
2022-10-17T00:17:47.263Z,96188.00
2022-10-17T00:17:57.173Z,96189.00
2022-10-17T00:18:07.275Z,96188.00
2022-10-17T00:18:17.348Z,96190.00
2022-10-17T00:18:27.218Z,96187.00
2022-10-17T00:18:37.238Z,96188.00
2022-10-17T00:18:47.321Z,96189.00
2022-10-17T00:18:57.346Z,96189.00
2022-10-17T00:19:07.246Z,96190.00
2022-10-17T00:19:17.157Z,96191.00
2022-10-17T00:19:27.107Z,96191.00
2022-10-17T00:19:37.283Z,96194.00
2022-10-17T00:19:47.142Z,96192.00
2022-10-17T00:19:57.403Z,96190.00
2022-10-17T00:20:07.332Z,96188.00
2022-10-17T00:20:17.291Z,96189.00
2022-10-17T00:20:27.164Z,96191.00
2022-10-17T00:20:37.218Z,96191.00
2022-10-17T00:20:47.370Z,96193.00
2022-10-17T00:20:57.176Z,96192.00
2022-10-17T00:21:07.257Z,96195.00
2022-10-17T00:21:17.302Z,96194.00
2022-10-17T00:21:27.179Z,96195.00
2022-10-17T00:21:37.363Z,96194.00
2022-10-17T00:21:47.120Z,96191.00
2022-10-17T00:21:57.380Z,96192.00
2022-10-17T00:22:07.249Z,96191.00
2022-10-17T00:22:17.116Z,96196.00
2022-10-17T00:22:27.356Z,96192.00
2022-10-17T00:22:37.288Z,96192.00
2022-10-17T00:22:47.276Z,96188.00
2022-10-17T00:22:57.145Z,96190.00
2022-10-17T00:23:07.405Z,96189.00
2022-10-17T00:23:17.356Z,96186.00
2022-10-17T00:23:27.169Z,96191.00
2022-10-17T00:23:37.174Z,96191.00
2022-10-17T00:23:47.356Z,96191.00
2022-10-17T00:23:57.316Z,96190.00
2022-10-17T00:24:07.366Z,96192.00
2022-10-17T00:24:17.164Z,96188.00
2022-10-17T00:24:27.343Z,96194.00
2022-10-17T00:24:37.168Z,96186.00
2022-10-17T00:24:47.226Z,96189.00
2022-10-17T00:25:00.583Z,96189.00
2022-10-17T00:25:07.278Z,96192.00
2022-10-17T00:25:17.321Z,96187.00
2022-10-17T00:25:27.378Z,96189.00
2022-10-17T00:25:37.118Z,96193.00
2022-10-17T00:25:47.129Z,96192.00
2022-10-17T00:25:57.235Z,96189.00
2022-10-17T00:26:07.301Z,96190.00
2022-10-17T00:26:17.200Z,96187.00
2022-10-17T00:26:27.286Z,96190.00
2022-10-17T00:26:37.238Z,96189.00
2022-10-17T00:26:47.313Z,96190.00
2022-10-17T00:26:57.202Z,96191.00
2022-10-17T00:27:07.263Z,96190.00
2022-10-17T00:27:17.294Z,96188.00
2022-10-17T00:27:27.455Z,96188.00
2022-10-17T00:27:37.259Z,96191.00
2022-10-17T00:27:47.260Z,96185.00
2022-10-17T00:27:57.295Z,96190.00
2022-10-17T00:28:07.346Z,96187.00
2022-10-17T00:28:17.258Z,96188.00
2022-10-17T00:28:27.306Z,96187.00
2022-10-17T00:28:37.323Z,96189.00
2022-10-17T00:28:47.279Z,96190.00
2022-10-17T00:28:57.359Z,96191.00
2022-10-17T00:29:07.301Z,96190.00
2022-10-17T00:29:17.251Z,96191.00
2022-10-17T00:29:27.222Z,96189.00
2022-10-17T00:29:37.293Z,96189.00
2022-10-17T00:29:47.197Z,96189.00
2022-10-17T00:29:57.214Z,96187.00
2022-10-17T00:30:07.215Z,96190.00
2022-10-17T00:30:17.327Z,96189.00
2022-10-17T00:30:27.207Z,96189.00
2022-10-17T00:30:37.279Z,96186.00
2022-10-17T00:30:47.364Z,96189.00
2022-10-17T00:30:57.215Z,96184.00
2022-10-17T00:31:07.239Z,96191.00
2022-10-17T00:31:17.248Z,96187.00
2022-10-17T00:31:27.273Z,96186.00
2022-10-17T00:31:37.264Z,96185.00
2022-10-17T00:31:47.376Z,96187.00
2022-10-17T00:31:57.273Z,96187.00
2022-10-17T00:32:07.203Z,96187.00
2022-10-17T00:32:17.233Z,96184.00
2022-10-17T00:32:27.398Z,96186.00
2022-10-17T00:32:37.153Z,96186.00
2022-10-17T00:32:47.238Z,96185.00
2022-10-17T00:32:57.232Z,96185.00
2022-10-17T00:33:07.321Z,96187.00
2022-10-17T00:33:17.406Z,96187.00
2022-10-17T00:33:27.360Z,96189.00
2022-10-17T00:33:37.228Z,96187.00
2022-10-17T00:33:47.137Z,96189.00
2022-10-17T00:33:57.380Z,96188.00
2022-10-17T00:34:07.168Z,96185.00
2022-10-17T00:34:17.374Z,96186.00
2022-10-17T00:34:27.171Z,96188.00
2022-10-17T00:34:37.305Z,96188.00
2022-10-17T00:34:47.212Z,96187.00
2022-10-17T00:34:57.182Z,96190.00
2022-10-17T00:35:07.371Z,96187.00
2022-10-17T00:35:17.347Z,96189.00
2022-10-17T00:35:27.112Z,96193.00
2022-10-17T00:35:37.188Z,96189.00
2022-10-17T00:35:47.331Z,96190.00
2022-10-17T00:35:57.159Z,96188.00
2022-10-17T00:36:07.314Z,96194.00
2022-10-17T00:36:17.184Z,96190.00
2022-10-17T00:36:27.193Z,96189.00
2022-10-17T00:36:37.315Z,96192.00
2022-10-17T00:36:47.171Z,96195.00
2022-10-17T00:36:57.153Z,96196.00
2022-10-17T00:37:07.486Z,96195.00
2022-10-17T00:37:17.365Z,96196.00
2022-10-17T00:37:27.371Z,96195.00
2022-10-17T00:37:37.333Z,96194.00
2022-10-17T00:37:47.100Z,96199.00
2022-10-17T00:37:57.310Z,96194.00
2022-10-17T00:38:07.234Z,96197.00
2022-10-17T00:38:17.199Z,96199.00
2022-10-17T00:38:27.370Z,96198.00
2022-10-17T00:38:37.234Z,96195.00
2022-10-17T00:38:47.196Z,96196.00
2022-10-17T00:39:01.055Z,96198.00
2022-10-17T00:39:07.256Z,96201.00
2022-10-17T00:39:17.140Z,96198.00
2022-10-17T00:39:27.247Z,96199.00
2022-10-17T00:39:38.944Z,96201.00
2022-10-17T00:39:47.226Z,96205.00
2022-10-17T00:39:57.145Z,96205.00
2022-10-17T00:40:10.490Z,96202.00
2022-10-17T00:40:17.126Z,96200.00
2022-10-17T00:40:27.228Z,96201.00
2022-10-17T00:40:39.930Z,96197.00
2022-10-17T00:40:47.202Z,96196.00
2022-10-17T00:40:57.155Z,96199.00
2022-10-17T00:41:07.339Z,96200.00
2022-10-17T00:41:17.313Z,96200.00
2022-10-17T00:41:27.228Z,96201.00
2022-10-17T00:41:37.333Z,96199.00
2022-10-17T00:41:47.360Z,96199.00
2022-10-17T00:41:57.366Z,96201.00
2022-10-17T00:42:07.198Z,96198.00
2022-10-17T00:42:17.125Z,96201.00
2022-10-17T00:42:27.307Z,96200.00
2022-10-17T00:42:37.245Z,96201.00
2022-10-17T00:42:47.229Z,96200.00
2022-10-17T00:42:57.179Z,96198.00
2022-10-17T00:43:07.246Z,96202.00
2022-10-17T00:43:17.165Z,96201.00
2022-10-17T00:43:27.132Z,96202.00
2022-10-17T00:43:37.365Z,96201.00
2022-10-17T00:43:47.225Z,96202.00
2022-10-17T00:43:57.239Z,96205.00
2022-10-17T00:44:07.359Z,96204.00
2022-10-17T00:44:17.205Z,96204.00
2022-10-17T00:44:27.369Z,96202.00
2022-10-17T00:44:37.165Z,96202.00
2022-10-17T00:44:47.139Z,96201.00
2022-10-17T00:44:57.226Z,96204.00
2022-10-17T00:45:07.361Z,96199.00
2022-10-17T00:45:17.173Z,96205.00
2022-10-17T00:45:27.392Z,96201.00
2022-10-17T00:45:37.156Z,96201.00
2022-10-17T00:45:47.336Z,96203.00
2022-10-17T00:45:57.321Z,96205.00
2022-10-17T00:46:07.386Z,96203.00
2022-10-17T00:46:17.330Z,96205.00
2022-10-17T00:46:27.165Z,96203.00
2022-10-17T00:46:37.296Z,96203.00
2022-10-17T00:46:47.191Z,96204.00
2022-10-17T00:46:57.221Z,96204.00
2022-10-17T00:47:07.422Z,96205.00
2022-10-17T00:47:17.140Z,96206.00
2022-10-17T00:47:27.241Z,96205.00
2022-10-17T00:47:42.053Z,96205.00
2022-10-17T00:47:47.212Z,96206.00
2022-10-17T00:47:57.303Z,96208.00
2022-10-17T00:48:07.165Z,96207.00
2022-10-17T00:48:21.225Z,96207.00
2022-10-17T00:48:27.184Z,96204.00
2022-10-17T00:48:37.278Z,96206.00
2022-10-17T00:48:47.155Z,96208.00
2022-10-17T00:48:57.136Z,96207.00
2022-10-17T00:49:07.274Z,96210.00
2022-10-17T00:49:17.388Z,96208.00
2022-10-17T00:49:27.274Z,96210.00
2022-10-17T00:49:37.173Z,96207.00
2022-10-17T00:49:47.292Z,96208.00
2022-10-17T00:49:57.326Z,96209.00
2022-10-17T00:50:07.353Z,96207.00
2022-10-17T00:50:17.119Z,96208.00
2022-10-17T00:50:27.372Z,96210.00
2022-10-17T00:50:37.587Z,96211.00
2022-10-17T00:50:47.351Z,96207.00
2022-10-17T00:50:58.848Z,96214.00
2022-10-17T00:51:07.373Z,96212.00
2022-10-17T00:51:17.322Z,96210.00
2022-10-17T00:51:27.334Z,96211.00
2022-10-17T00:51:37.189Z,96210.00
2022-10-17T00:51:47.380Z,96211.00
2022-10-17T00:51:57.383Z,96210.00
2022-10-17T00:52:07.185Z,96211.00
2022-10-17T00:52:17.381Z,96211.00
2022-10-17T00:52:27.492Z,96210.00
2022-10-17T00:52:37.107Z,96211.00
2022-10-17T00:52:47.164Z,96216.00
2022-10-17T00:52:57.307Z,96215.00
2022-10-17T00:53:07.344Z,96213.00
2022-10-17T00:53:17.159Z,96212.00
2022-10-17T00:53:27.194Z,96215.00
2022-10-17T00:53:37.134Z,96212.00
2022-10-17T00:53:47.159Z,96210.00
2022-10-17T00:53:57.181Z,96212.00
2022-10-17T00:54:07.314Z,96213.00
2022-10-17T00:54:17.163Z,96211.00
2022-10-17T00:54:27.357Z,96210.00
2022-10-17T00:54:37.152Z,96209.00
2022-10-17T00:54:47.260Z,96211.00
2022-10-17T00:54:57.130Z,96213.00
2022-10-17T00:55:07.323Z,96210.00
2022-10-17T00:55:17.361Z,96211.00
2022-10-17T00:55:27.156Z,96212.00
2022-10-17T00:55:37.324Z,96208.00
2022-10-17T00:55:47.382Z,96215.00
2022-10-17T00:55:57.353Z,96212.00
2022-10-17T00:56:07.123Z,96212.00
2022-10-17T00:56:17.273Z,96215.00
2022-10-17T00:56:27.317Z,96208.00
2022-10-17T00:56:37.271Z,96211.00
2022-10-17T00:56:47.275Z,96212.00
2022-10-17T00:56:57.262Z,96213.00
2022-10-17T00:57:07.380Z,96212.00
2022-10-17T00:57:17.264Z,96214.00
2022-10-17T00:57:27.133Z,96212.00
2022-10-17T00:57:37.279Z,96212.00
2022-10-17T00:57:47.288Z,96212.00
2022-10-17T00:57:57.254Z,96211.00
2022-10-17T00:58:08.315Z,96208.00
2022-10-17T00:58:17.289Z,96205.00
2022-10-17T00:58:27.190Z,96207.00
2022-10-17T00:58:37.335Z,96210.00
2022-10-17T00:58:47.374Z,96209.00
2022-10-17T00:58:57.409Z,96211.00
2022-10-17T00:59:07.497Z,96210.00
2022-10-17T00:59:17.125Z,96214.00
2022-10-17T00:59:28.044Z,96210.00
2022-10-17T00:59:37.156Z,96213.00
2022-10-17T00:59:47.356Z,96210.00
2022-10-17T00:59:57.376Z,96209.00
2022-10-17T01:00:07.407Z,96206.00
2022-10-17T01:00:17.403Z,96209.00
2022-10-17T01:00:27.365Z,96211.00
2022-10-17T01:00:37.114Z,96211.00
2022-10-17T01:00:47.286Z,96207.00
2022-10-17T01:00:57.175Z,96211.00
2022-10-17T01:01:07.508Z,96211.00
2022-10-17T01:01:17.450Z,96213.00
2022-10-17T01:01:27.360Z,96211.00
2022-10-17T01:01:37.416Z,96208.00
2022-10-17T01:01:47.449Z,96209.00
2022-10-17T01:01:57.228Z,96208.00
2022-10-17T01:02:07.127Z,96207.00
2022-10-17T01:02:17.370Z,96211.00
2022-10-17T01:02:27.756Z,96209.00
2022-10-17T01:02:37.272Z,96210.00
2022-10-17T01:02:47.241Z,96208.00
2022-10-17T01:02:57.366Z,96211.00
2022-10-17T01:03:07.293Z,96210.00
2022-10-17T01:03:17.223Z,96210.00
2022-10-17T01:03:27.134Z,96209.00
2022-10-17T01:03:37.244Z,96212.00
2022-10-17T01:03:47.120Z,96211.00
2022-10-17T01:03:57.332Z,96212.00
2022-10-17T01:04:07.234Z,96213.00
2022-10-17T01:04:17.347Z,96215.00
2022-10-17T01:04:27.399Z,96210.00
2022-10-17T01:04:37.118Z,96215.00
2022-10-17T01:04:47.184Z,96211.00
2022-10-17T01:04:57.267Z,96214.00
2022-10-17T01:05:07.262Z,96212.00
2022-10-17T01:05:18.326Z,96210.00
2022-10-17T01:05:27.400Z,96212.00
2022-10-17T01:05:38.038Z,96213.00
2022-10-17T01:05:47.235Z,96211.00
2022-10-17T01:05:57.156Z,96210.00
2022-10-17T01:06:07.149Z,96212.00
2022-10-17T01:06:17.183Z,96212.00
2022-10-17T01:06:27.162Z,96213.00
2022-10-17T01:06:37.144Z,96215.00
2022-10-17T01:06:47.247Z,96215.00
2022-10-17T01:06:57.390Z,96210.00
2022-10-17T01:07:07.303Z,96212.00
2022-10-17T01:07:17.165Z,96215.00
2022-10-17T01:07:27.336Z,96212.00
2022-10-17T01:07:37.427Z,96214.00
2022-10-17T01:07:47.310Z,96213.00
2022-10-17T01:07:57.370Z,96216.00
2022-10-17T01:08:07.400Z,96213.00
2022-10-17T01:08:17.179Z,96215.00
2022-10-17T01:08:27.315Z,96212.00
2022-10-17T01:08:37.393Z,96211.00
2022-10-17T01:08:47.363Z,96213.00
2022-10-17T01:08:57.342Z,96212.00
2022-10-17T01:09:07.368Z,96216.00
2022-10-17T01:09:17.392Z,96213.00
2022-10-17T01:09:27.315Z,96212.00
2022-10-17T01:09:37.204Z,96212.00
2022-10-17T01:09:47.213Z,96212.00
2022-10-17T01:09:57.282Z,96213.00
2022-10-17T01:10:07.237Z,96215.00
2022-10-17T01:10:17.423Z,96212.00
2022-10-17T01:10:27.273Z,96211.00
2022-10-17T01:10:37.163Z,96212.00
2022-10-17T01:10:47.262Z,96213.00
2022-10-17T01:10:57.280Z,96215.00
2022-10-17T01:11:07.239Z,96214.00
2022-10-17T01:11:17.277Z,96212.00
2022-10-17T01:11:27.219Z,96214.00
2022-10-17T01:11:37.279Z,96214.00
2022-10-17T01:11:47.118Z,96210.00
2022-10-17T01:11:57.367Z,96213.00
2022-10-17T01:12:07.250Z,96215.00
2022-10-17T01:12:17.258Z,96213.00
2022-10-17T01:12:27.622Z,96210.00
2022-10-17T01:12:41.146Z,96213.00
2022-10-17T01:12:47.237Z,96211.00
2022-10-17T01:12:57.111Z,96214.00
2022-10-17T01:13:07.335Z,96212.00
2022-10-17T01:13:17.107Z,96215.00
2022-10-17T01:13:27.333Z,96213.00
2022-10-17T01:13:37.446Z,96212.00
2022-10-17T01:13:47.115Z,96210.00
2022-10-17T01:13:57.135Z,96214.00
2022-10-17T01:14:07.356Z,96212.00
2022-10-17T01:14:17.322Z,96214.00
2022-10-17T01:14:27.370Z,96215.00
2022-10-17T01:14:37.111Z,96216.00
2022-10-17T01:14:47.404Z,96212.00
2022-10-17T01:14:57.395Z,96211.00
2022-10-17T01:15:07.369Z,96213.00
2022-10-17T01:15:17.144Z,96213.00
2022-10-17T01:15:27.107Z,96213.00
2022-10-17T01:15:37.175Z,96212.00
2022-10-17T01:15:47.150Z,96214.00
2022-10-17T01:15:57.338Z,96215.00
2022-10-17T01:16:07.370Z,96213.00
2022-10-17T01:16:17.258Z,96213.00
2022-10-17T01:16:27.260Z,96210.00
2022-10-17T01:16:38.195Z,96210.00
2022-10-17T01:16:47.313Z,96211.00
2022-10-17T01:16:57.211Z,96212.00
2022-10-17T01:17:07.111Z,96212.00
2022-10-17T01:17:17.225Z,96209.00
2022-10-17T01:17:27.367Z,96209.00
2022-10-17T01:17:37.302Z,96211.00
2022-10-17T01:17:47.317Z,96211.00
2022-10-17T01:17:57.396Z,96206.00
2022-10-17T01:18:07.188Z,96208.00
2022-10-17T01:18:17.200Z,96208.00
2022-10-17T01:18:27.104Z,96208.00
2022-10-17T01:18:37.386Z,96210.00
2022-10-17T01:18:47.216Z,96204.00
2022-10-17T01:18:57.233Z,96210.00
2022-10-17T01:19:07.318Z,96212.00
2022-10-17T01:19:17.351Z,96209.00
2022-10-17T01:19:27.235Z,96210.00
2022-10-17T01:19:37.119Z,96211.00
2022-10-17T01:19:47.378Z,96212.00
2022-10-17T01:19:57.166Z,96209.00
2022-10-17T01:20:07.283Z,96210.00
2022-10-17T01:20:17.364Z,96206.00
2022-10-17T01:20:27.321Z,96209.00
2022-10-17T01:20:37.225Z,96208.00
2022-10-17T01:20:47.215Z,96207.00
2022-10-17T01:20:57.270Z,96211.00
2022-10-17T01:21:07.149Z,96207.00
2022-10-17T01:21:17.257Z,96208.00
2022-10-17T01:21:27.125Z,96213.00
2022-10-17T01:21:37.226Z,96213.00
2022-10-17T01:21:47.290Z,96207.00
2022-10-17T01:21:57.188Z,96211.00
2022-10-17T01:22:07.311Z,96209.00
2022-10-17T01:22:17.249Z,96207.00
2022-10-17T01:22:27.592Z,96207.00
2022-10-17T01:22:37.197Z,96207.00
2022-10-17T01:22:47.353Z,96205.00
2022-10-17T01:22:57.219Z,96206.00
2022-10-17T01:23:07.332Z,96207.00
2022-10-17T01:23:17.255Z,96203.00
2022-10-17T01:23:27.174Z,96208.00
2022-10-17T01:23:37.169Z,96206.00
2022-10-17T01:23:47.216Z,96210.00
2022-10-17T01:23:57.295Z,96203.00
2022-10-17T01:24:07.234Z,96207.00
2022-10-17T01:24:17.273Z,96206.00
2022-10-17T01:24:27.135Z,96204.00
2022-10-17T01:24:37.174Z,96209.00
2022-10-17T01:24:47.199Z,96207.00
2022-10-17T01:24:57.249Z,96206.00
2022-10-17T01:25:07.145Z,96206.00
2022-10-17T01:25:17.405Z,96206.00
2022-10-17T01:25:27.430Z,96205.00
2022-10-17T01:25:37.178Z,96206.00
2022-10-17T01:25:47.370Z,96207.00
2022-10-17T01:25:57.190Z,96206.00
2022-10-17T01:26:07.153Z,96210.00
2022-10-17T01:26:17.242Z,96202.00
2022-10-17T01:26:27.353Z,96205.00
2022-10-17T01:26:37.114Z,96209.00
2022-10-17T01:26:47.151Z,96208.00
2022-10-17T01:26:57.119Z,96210.00
2022-10-17T01:27:07.292Z,96208.00
2022-10-17T01:27:17.337Z,96207.00
2022-10-17T01:27:27.234Z,96204.00
2022-10-17T01:27:39.724Z,96207.00
2022-10-17T01:27:47.222Z,96203.00
2022-10-17T01:27:57.237Z,96206.00
2022-10-17T01:28:07.249Z,96207.00
2022-10-17T01:28:17.114Z,96204.00
2022-10-17T01:28:27.320Z,96202.00
2022-10-17T01:28:37.478Z,96203.00
2022-10-17T01:28:47.337Z,96204.00
2022-10-17T01:28:57.377Z,96206.00
2022-10-17T01:29:07.241Z,96203.00
2022-10-17T01:29:17.180Z,96204.00
2022-10-17T01:29:27.250Z,96203.00
2022-10-17T01:29:37.287Z,96202.00
2022-10-17T01:29:47.343Z,96205.00
2022-10-17T01:29:57.145Z,96205.00
2022-10-17T01:30:07.264Z,96202.00
2022-10-17T01:30:17.121Z,96205.00
2022-10-17T01:30:27.241Z,96204.00
2022-10-17T01:30:37.154Z,96201.00
2022-10-17T01:30:47.353Z,96201.00
2022-10-17T01:30:57.300Z,96202.00
2022-10-17T01:31:07.117Z,96202.00
2022-10-17T01:31:17.115Z,96200.00
2022-10-17T01:31:27.279Z,96201.00
2022-10-17T01:31:37.138Z,96201.00
2022-10-17T01:31:47.195Z,96202.00
2022-10-17T01:31:57.378Z,96202.00
2022-10-17T01:32:07.430Z,96197.00
2022-10-17T01:32:17.255Z,96199.00
2022-10-17T01:32:27.373Z,96197.00
2022-10-17T01:32:37.286Z,96196.00
2022-10-17T01:32:47.189Z,96198.00
2022-10-17T01:32:57.242Z,96199.00
2022-10-17T01:33:07.262Z,96200.00
2022-10-17T01:33:17.356Z,96198.00
2022-10-17T01:33:27.147Z,96197.00
2022-10-17T01:33:37.333Z,96197.00
2022-10-17T01:33:47.348Z,96192.00
2022-10-17T01:33:57.316Z,96196.00
2022-10-17T01:34:07.389Z,96193.00
2022-10-17T01:34:17.231Z,96197.00
2022-10-17T01:34:27.323Z,96197.00
2022-10-17T01:34:37.121Z,96199.00
2022-10-17T01:34:47.360Z,96196.00
2022-10-17T01:34:57.285Z,96200.00
2022-10-17T01:35:07.333Z,96196.00
2022-10-17T01:35:17.307Z,96197.00
2022-10-17T01:35:27.297Z,96199.00
2022-10-17T01:35:37.341Z,96197.00
2022-10-17T01:35:47.330Z,96196.00
2022-10-17T01:36:00.517Z,96196.00
2022-10-17T01:36:07.188Z,96196.00
2022-10-17T01:36:17.287Z,96197.00
2022-10-17T01:36:27.316Z,96195.00
2022-10-17T01:36:37.144Z,96198.00
2022-10-17T01:36:47.225Z,96198.00
2022-10-17T01:36:57.181Z,96194.00
2022-10-17T01:37:07.362Z,96195.00
2022-10-17T01:37:17.134Z,96195.00
2022-10-17T01:37:27.399Z,96193.00
2022-10-17T01:37:37.187Z,96198.00
2022-10-17T01:37:47.303Z,96198.00
2022-10-17T01:37:57.165Z,96200.00
2022-10-17T01:38:07.201Z,96194.00
2022-10-17T01:38:17.129Z,96194.00
2022-10-17T01:38:27.295Z,96192.00
2022-10-17T01:38:37.228Z,96196.00
2022-10-17T01:38:47.403Z,96197.00
2022-10-17T01:38:57.165Z,96195.00
2022-10-17T01:39:07.407Z,96196.00
2022-10-17T01:39:17.342Z,96195.00
2022-10-17T01:39:29.961Z,96197.00
2022-10-17T01:39:38.431Z,96200.00
2022-10-17T01:39:47.897Z,96196.00
2022-10-17T01:39:57.121Z,96195.00
2022-10-17T01:40:07.168Z,96197.00
2022-10-17T01:40:17.406Z,96197.00
2022-10-17T01:40:27.358Z,96197.00
2022-10-17T01:40:37.319Z,96203.00
2022-10-17T01:40:47.162Z,96200.00
2022-10-17T01:40:57.284Z,96201.00
2022-10-17T01:41:07.393Z,96201.00
2022-10-17T01:41:17.174Z,96200.00
2022-10-17T01:41:27.116Z,96196.00
2022-10-17T01:41:37.312Z,96200.00
2022-10-17T01:41:47.164Z,96202.00
2022-10-17T01:41:57.158Z,96200.00
2022-10-17T01:42:07.282Z,96201.00
2022-10-17T01:42:17.185Z,96201.00
2022-10-17T01:42:27.536Z,96201.00
2022-10-17T01:42:37.108Z,96201.00
2022-10-17T01:42:47.179Z,96203.00
2022-10-17T01:42:57.242Z,96199.00
2022-10-17T01:43:07.132Z,96199.00
2022-10-17T01:43:17.223Z,96199.00
2022-10-17T01:43:27.283Z,96200.00
2022-10-17T01:43:37.372Z,96199.00
2022-10-17T01:43:47.225Z,96200.00
2022-10-17T01:44:02.253Z,96203.00
2022-10-17T01:44:07.279Z,96200.00
2022-10-17T01:44:17.327Z,96201.00
2022-10-17T01:44:27.335Z,96201.00
2022-10-17T01:44:37.201Z,96201.00
2022-10-17T01:44:47.349Z,96204.00
2022-10-17T01:44:57.217Z,96204.00
2022-10-17T01:45:07.138Z,96201.00
2022-10-17T01:45:17.359Z,96199.00
2022-10-17T01:45:27.114Z,96199.00
2022-10-17T01:45:37.242Z,96200.00
2022-10-17T01:45:47.141Z,96201.00
2022-10-17T01:45:57.146Z,96201.00
2022-10-17T01:46:07.433Z,96201.00
2022-10-17T01:46:17.339Z,96200.00
2022-10-17T01:46:27.218Z,96204.00
2022-10-17T01:46:37.410Z,96200.00
2022-10-17T01:46:47.511Z,96199.00
2022-10-17T01:47:07.208Z,96202.00
2022-10-17T01:47:17.353Z,96201.00
2022-10-17T01:47:27.699Z,96201.00
2022-10-17T01:47:37.192Z,96200.00
2022-10-17T01:47:47.401Z,96200.00
2022-10-17T01:47:57.350Z,96204.00
2022-10-17T01:48:07.296Z,96200.00
2022-10-17T01:48:17.234Z,96199.00
2022-10-17T01:48:27.116Z,96204.00
2022-10-17T01:48:37.118Z,96206.00
2022-10-17T01:48:47.255Z,96198.00
2022-10-17T01:48:57.270Z,96201.00
2022-10-17T01:49:07.334Z,96201.00
2022-10-17T01:49:17.204Z,96201.00
2022-10-17T01:49:27.233Z,96199.00
2022-10-17T01:49:37.109Z,96202.00
2022-10-17T01:49:47.349Z,96200.00
2022-10-17T01:49:57.239Z,96199.00
2022-10-17T01:50:07.369Z,96198.00
2022-10-17T01:50:17.267Z,96199.00
2022-10-17T01:50:27.353Z,96200.00
2022-10-17T01:50:37.377Z,96199.00
2022-10-17T01:50:50.592Z,96196.00
2022-10-17T01:50:57.271Z,96196.00
2022-10-17T01:51:07.269Z,96200.00
2022-10-17T01:51:17.275Z,96202.00
2022-10-17T01:51:27.364Z,96201.00
2022-10-17T01:51:37.354Z,96200.00
2022-10-17T01:51:47.244Z,96198.00
2022-10-17T01:51:57.197Z,96201.00
2022-10-17T01:52:07.216Z,96199.00
2022-10-17T01:52:17.382Z,96200.00
2022-10-17T01:52:27.210Z,96199.00
2022-10-17T01:52:37.194Z,96196.00
2022-10-17T01:52:47.273Z,96199.00
2022-10-17T01:52:57.149Z,96200.00
2022-10-17T01:53:07.356Z,96202.00
2022-10-17T01:53:17.354Z,96197.00
2022-10-17T01:53:27.260Z,96196.00
2022-10-17T01:53:37.207Z,96200.00
2022-10-17T01:53:47.264Z,96198.00
2022-10-17T01:53:57.292Z,96198.00
2022-10-17T01:54:07.199Z,96202.00
2022-10-17T01:54:17.193Z,96203.00
2022-10-17T01:54:27.287Z,96200.00
2022-10-17T01:54:37.332Z,96199.00
2022-10-17T01:54:47.129Z,96201.00
2022-10-17T01:54:57.349Z,96200.00
2022-10-17T01:55:07.193Z,96201.00
2022-10-17T01:55:17.316Z,96199.00
2022-10-17T01:55:27.210Z,96200.00
2022-10-17T01:55:38.061Z,96201.00
2022-10-17T01:55:47.326Z,96203.00
2022-10-17T01:56:07.127Z,96198.00
2022-10-17T01:56:17.379Z,96200.00
2022-10-17T01:56:27.130Z,96203.00
2022-10-17T01:56:37.263Z,96203.00
2022-10-17T01:56:47.290Z,96199.00
2022-10-17T01:56:57.287Z,96201.00
2022-10-17T01:57:07.135Z,96202.00
2022-10-17T01:57:17.280Z,96201.00
2022-10-17T01:57:27.565Z,96199.00
2022-10-17T01:57:37.142Z,96203.00
2022-10-17T01:57:47.291Z,96201.00